createdAt,value
2023-02-10T00:02:13.146Z,34.38
2023-02-10T00:04:39.847Z,29.10
2023-02-10T00:07:06.344Z,29.17
2023-02-10T00:09:32.910Z,25.50
2023-02-10T00:12:00.943Z,28.48
2023-02-10T00:14:29.437Z,26.58
2023-02-10T00:16:56.804Z,25.08
2023-02-10T00:19:26.443Z,23.50
2023-02-10T00:21:53.210Z,24.87
2023-02-10T00:24:20.989Z,25.77
2023-02-10T00:26:47.809Z,24.55
2023-02-10T00:29:14.882Z,24.27
2023-02-10T00:31:42.360Z,28.58
2023-02-10T00:34:15.148Z,31.10
2023-02-10T00:36:42.210Z,33.90
2023-02-10T00:39:13.648Z,30.08
2023-02-10T00:41:40.685Z,32.03
2023-02-10T00:44:09.102Z,30.25
2023-02-10T00:46:36.872Z,37.20
2023-02-10T00:49:05.406Z,31.77
2023-02-10T00:51:32.095Z,35.72
2023-02-10T00:53:58.710Z,35.08
2023-02-10T00:56:25.238Z,36.67
2023-02-10T00:58:51.662Z,33.60
2023-02-10T01:01:18.229Z,33.83
2023-02-10T01:03:44.788Z,31.40
2023-02-10T01:06:14.571Z,30.30
2023-02-10T01:08:41.670Z,34.92
2023-02-10T01:11:10.759Z,31.00
2023-02-10T01:13:38.118Z,38.83
2023-02-10T01:16:06.205Z,33.58
2023-02-10T01:18:32.723Z,36.40
2023-02-10T01:20:59.191Z,33.85
2023-02-10T01:23:25.602Z,32.60
2023-02-10T01:25:52.093Z,34.78
2023-02-10T01:28:18.680Z,40.55
2023-02-10T01:30:46.017Z,37.63
2023-02-10T01:33:12.558Z,37.53
2023-02-10T01:35:39.807Z,40.87
2023-02-10T01:38:06.362Z,32.80
2023-02-10T01:40:32.976Z,34.88
2023-02-10T01:42:59.526Z,33.88
2023-02-10T01:45:34.236Z,27.35
2023-02-10T01:48:01.548Z,28.73
2023-02-10T01:50:36.657Z,32.58
2023-02-10T01:53:04.013Z,32.90
2023-02-10T01:55:37.596Z,34.38
2023-02-10T01:58:07.393Z,32.25
2023-02-10T02:00:33.890Z,38.70
2023-02-10T02:03:02.109Z,25.38
2023-02-10T02:05:35.740Z,27.73
2023-02-10T02:08:14.964Z,34.50
2023-02-10T02:11:18.715Z,33.53
2023-02-10T02:14:00.835Z,32.27
2023-02-10T02:17:01.180Z,32.22
2023-02-10T02:20:21.753Z,29.70
2023-02-10T02:23:15.684Z,43.22
2023-02-10T02:26:00.777Z,33.88
2023-02-10T02:28:35.988Z,37.17
2023-02-10T02:31:40.829Z,37.95
2023-02-10T02:34:14.170Z,41.53
2023-02-10T02:37:06.562Z,35.88
2023-02-10T02:39:33.540Z,31.40
2023-02-10T02:42:17.458Z,36.43
2023-02-10T02:44:47.028Z,38.35
2023-02-10T02:47:27.102Z,31.38
2023-02-10T02:50:35.791Z,31.23
2023-02-10T02:53:20.001Z,33.08
2023-02-10T02:56:10.655Z,28.23
2023-02-10T02:58:48.653Z,36.72
2023-02-10T03:01:22.205Z,31.52
2023-02-10T03:03:49.775Z,40.33
2023-02-10T03:06:16.260Z,34.95
2023-02-10T03:08:42.797Z,35.13
2023-02-10T03:11:09.320Z,34.17
2023-02-10T03:13:35.863Z,39.83
2023-02-10T03:16:03.678Z,32.75
2023-02-10T03:18:30.309Z,36.75
2023-02-10T03:20:56.785Z,33.27
2023-02-10T03:23:23.263Z,36.35
2023-02-10T03:25:50.227Z,40.00
2023-02-10T03:28:17.126Z,33.90
2023-02-10T03:30:50.063Z,32.60
2023-02-10T03:33:17.652Z,36.50
2023-02-10T03:35:46.368Z,39.28
2023-02-10T03:38:14.350Z,35.08
2023-02-10T03:40:40.906Z,38.53
2023-02-10T03:43:07.408Z,37.63
2023-02-10T03:45:33.957Z,34.80
2023-02-10T03:48:00.446Z,40.38
2023-02-10T03:50:26.960Z,37.17
2023-02-10T03:52:53.772Z,37.85
2023-02-10T03:55:20.349Z,36.58
2023-02-10T03:57:47.218Z,32.60
2023-02-10T04:00:14.624Z,32.17
2023-02-10T04:02:41.168Z,37.55
2023-02-10T04:05:07.911Z,34.60
2023-02-10T04:07:34.454Z,38.72
2023-02-10T04:10:00.939Z,34.13
2023-02-10T04:12:27.449Z,39.88
2023-02-10T04:14:54.068Z,37.45
2023-02-10T04:17:20.643Z,31.98
2023-02-10T04:19:47.157Z,30.38
2023-02-10T04:22:13.675Z,32.40
2023-02-10T04:24:40.198Z,34.20
2023-02-10T04:27:06.846Z,28.85
2023-02-10T04:29:34.643Z,35.53
2023-02-10T04:32:01.203Z,35.63
2023-02-10T04:34:27.736Z,27.73
2023-02-10T04:36:54.339Z,29.45
2023-02-10T04:39:20.839Z,29.50
2023-02-10T04:41:47.375Z,30.83
2023-02-10T04:44:13.867Z,31.92
2023-02-10T04:46:40.409Z,29.30
2023-02-10T04:49:07.243Z,33.85
2023-02-10T04:51:33.720Z,37.15
2023-02-10T04:54:00.317Z,30.00
2023-02-10T04:56:26.974Z,27.90
2023-02-10T04:58:53.440Z,28.00
2023-02-10T05:01:19.947Z,33.20
2023-02-10T05:03:46.433Z,29.67
2023-02-10T05:06:14.679Z,32.00
2023-02-10T05:08:42.473Z,33.88
2023-02-10T05:11:10.069Z,35.40
2023-02-10T05:13:37.022Z,33.30
2023-02-10T05:16:06.760Z,36.53
2023-02-10T05:18:35.034Z,35.60
2023-02-10T05:21:03.410Z,42.20
2023-02-10T05:23:30.512Z,38.67
2023-02-10T05:25:56.976Z,31.67
2023-02-10T05:28:23.488Z,35.45
2023-02-10T05:30:50.142Z,33.92
2023-02-10T05:33:16.739Z,42.78
2023-02-10T05:35:43.161Z,37.47
2023-02-10T05:38:09.823Z,39.55
2023-02-10T05:40:36.422Z,39.30
2023-02-10T05:43:03.272Z,43.15
2023-02-10T05:45:29.950Z,42.60
2023-02-10T05:47:56.494Z,42.37
2023-02-10T05:50:23.047Z,44.72
2023-02-10T05:52:49.594Z,41.75
2023-02-10T05:55:16.297Z,53.85
2023-02-10T05:57:42.807Z,48.15
2023-02-10T06:00:10.479Z,44.77
2023-02-10T06:02:39.723Z,51.70
2023-02-10T06:05:06.552Z,48.55
2023-02-10T06:07:33.331Z,45.72
2023-02-10T06:09:59.839Z,54.72
2023-02-10T06:12:26.322Z,46.53
2023-02-10T06:14:52.908Z,47.72
2023-02-10T06:17:19.701Z,51.35
2023-02-10T06:19:46.215Z,44.28
2023-02-10T06:22:12.726Z,50.25
2023-02-10T06:24:39.935Z,55.00
2023-02-10T06:27:06.488Z,48.83
2023-02-10T06:29:33.054Z,45.42
2023-02-10T06:31:59.603Z,44.75
2023-02-10T06:34:26.566Z,48.90
2023-02-10T06:36:53.006Z,45.43
2023-02-10T06:39:19.488Z,47.33
2023-02-10T06:41:46.067Z,49.97
2023-02-10T06:44:12.806Z,51.88
2023-02-10T06:46:39.362Z,54.53
2023-02-10T06:49:05.876Z,47.43
2023-02-10T06:51:32.371Z,47.53
2023-02-10T06:53:58.863Z,47.75
2023-02-10T06:56:25.480Z,51.60
2023-02-10T06:58:52.192Z,45.92
2023-02-10T07:01:19.995Z,50.97
2023-02-10T07:03:46.527Z,51.35
2023-02-10T07:06:13.124Z,52.42
2023-02-10T07:08:39.710Z,43.70
2023-02-10T07:11:06.267Z,44.60
2023-02-10T07:13:33.207Z,49.33
2023-02-10T07:15:59.937Z,55.45
2023-02-10T07:18:28.754Z,52.83
2023-02-10T07:20:55.291Z,50.50
2023-02-10T07:23:35.277Z,53.70
2023-02-10T07:26:02.567Z,65.70
2023-02-10T07:28:29.141Z,65.25
2023-02-10T07:30:55.763Z,57.03
2023-02-10T07:33:22.357Z,60.45
2023-02-10T07:35:49.213Z,69.30
2023-02-10T07:38:15.882Z,55.23
2023-02-10T07:40:42.836Z,66.40
2023-02-10T07:43:09.496Z,64.97
2023-02-10T07:45:42.674Z,60.83
2023-02-10T07:48:09.269Z,58.15
2023-02-10T07:50:35.688Z,66.40
2023-02-10T07:53:02.209Z,66.57
2023-02-10T07:55:28.718Z,71.10
2023-02-10T07:57:55.209Z,69.55
2023-02-10T08:00:21.838Z,61.53
2023-02-10T08:02:48.327Z,62.80
2023-02-10T08:05:14.915Z,70.50
2023-02-10T08:07:41.554Z,62.22
2023-02-10T08:10:08.318Z,63.63
2023-02-10T08:12:34.928Z,63.20
2023-02-10T08:15:01.395Z,63.47
2023-02-10T08:17:28.805Z,58.78
2023-02-10T08:19:55.287Z,60.85
2023-02-10T08:22:22.028Z,63.00
2023-02-10T08:24:48.845Z,57.40
2023-02-10T08:27:15.374Z,60.63
2023-02-10T08:29:41.901Z,56.05
2023-02-10T08:32:08.506Z,57.50
2023-02-10T08:34:35.260Z,59.72
2023-02-10T08:37:01.749Z,57.45
2023-02-10T08:39:29.524Z,56.93
2023-02-10T08:41:56.167Z,53.30
2023-02-10T08:44:22.677Z,48.00
2023-02-10T08:46:49.643Z,53.05
2023-02-10T08:49:16.299Z,49.50
2023-02-10T08:51:42.751Z,46.33
2023-02-10T08:54:10.369Z,47.60
2023-02-10T08:56:36.902Z,52.88
2023-02-10T08:59:03.960Z,57.17
2023-02-10T09:01:30.796Z,48.28
2023-02-10T09:03:57.616Z,47.30
2023-02-10T09:06:31.337Z,45.40
2023-02-10T09:08:58.109Z,48.85
2023-02-10T09:11:25.084Z,44.38
2023-02-10T09:13:52.374Z,45.08
2023-02-10T09:16:19.383Z,47.70
2023-02-10T09:18:46.488Z,46.33
2023-02-10T09:21:13.014Z,47.20
2023-02-10T09:23:39.720Z,48.28
2023-02-10T09:26:06.280Z,42.60
2023-02-10T09:28:32.969Z,44.57
2023-02-10T09:30:59.643Z,38.35
2023-02-10T09:33:26.418Z,43.38
2023-02-10T09:35:52.930Z,43.50
2023-02-10T09:38:19.404Z,40.22
2023-02-10T09:41:26.650Z,48.33
2023-02-10T09:44:11.651Z,44.65
2023-02-10T09:46:56.681Z,44.00
2023-02-10T09:49:29.206Z,39.63
2023-02-10T09:52:20.162Z,47.10
2023-02-10T09:54:47.328Z,45.20
2023-02-10T09:57:26.760Z,41.05
2023-02-10T09:59:55.162Z,48.72
2023-02-10T10:02:40.808Z,44.92
2023-02-10T10:05:20.508Z,45.67
2023-02-10T10:07:51.336Z,45.20
2023-02-10T10:10:41.446Z,47.22
2023-02-10T10:13:18.674Z,42.63
2023-02-10T10:16:08.455Z,32.92
2023-02-10T10:18:48.716Z,31.63
2023-02-10T10:21:37.300Z,33.53
2023-02-10T10:24:22.257Z,29.63
2023-02-10T10:26:48.664Z,25.70
2023-02-10T10:29:15.075Z,26.92
2023-02-10T10:31:46.779Z,29.35
2023-02-10T10:34:19.418Z,24.73
2023-02-10T10:36:48.397Z,29.33
2023-02-10T10:39:37.854Z,27.70
2023-02-10T10:42:13.512Z,30.52
2023-02-10T10:44:40.493Z,28.58
2023-02-10T10:47:14.477Z,32.37
2023-02-10T10:49:41.086Z,32.03
2023-02-10T10:52:29.405Z,26.65
2023-02-10T10:54:57.046Z,27.52
2023-02-10T10:57:26.360Z,30.02
2023-02-10T11:00:02.922Z,29.97
2023-02-10T11:02:29.568Z,31.35
2023-02-10T11:05:11.948Z,29.67
2023-02-10T11:07:39.434Z,25.80
2023-02-10T11:10:06.353Z,27.10
2023-02-10T11:12:39.777Z,31.60
2023-02-10T11:15:37.174Z,26.33
2023-02-10T11:18:07.437Z,29.25
2023-02-10T11:20:36.565Z,28.98
2023-02-10T11:23:15.362Z,31.30
2023-02-10T11:25:42.946Z,32.57
2023-02-10T11:28:20.287Z,29.85
2023-02-10T11:30:59.239Z,23.80
2023-02-10T11:33:30.571Z,30.92
2023-02-10T11:36:04.213Z,25.25
2023-02-10T11:38:31.105Z,30.37
2023-02-10T11:41:01.529Z,27.50
2023-02-10T11:43:38.341Z,30.80
2023-02-10T11:46:09.370Z,30.55
2023-02-10T11:48:36.352Z,29.60
2023-02-10T11:51:14.080Z,29.87
2023-02-10T11:53:41.785Z,33.33
2023-02-10T11:56:15.358Z,31.98
2023-02-10T11:59:04.533Z,28.65
2023-02-10T12:01:53.894Z,30.02
2023-02-10T12:04:40.362Z,31.40
2023-02-10T12:07:28.619Z,32.95
2023-02-10T12:10:15.579Z,29.60
2023-02-10T12:12:47.329Z,30.98
2023-02-10T12:15:21.574Z,29.27
2023-02-10T12:18:01.227Z,28.90
2023-02-10T12:20:36.473Z,25.55
2023-02-10T12:23:32.000Z,24.27
2023-02-10T12:26:11.508Z,29.05
2023-02-10T12:28:57.962Z,25.25
2023-02-10T12:32:01.189Z,26.07
2023-02-10T12:35:03.228Z,24.20
2023-02-10T12:37:54.286Z,29.10
2023-02-10T12:40:44.942Z,26.45
2023-02-10T12:43:46.964Z,26.20
2023-02-10T12:46:31.514Z,27.30
2023-02-10T12:49:09.318Z,26.63
2023-02-10T12:51:58.184Z,24.80
2023-02-10T12:54:42.454Z,27.15
2023-02-10T12:57:14.714Z,25.98
2023-02-10T12:59:53.282Z,31.63
2023-02-10T13:02:38.634Z,25.17
2023-02-10T13:05:11.156Z,28.20
2023-02-10T13:07:46.708Z,29.10
2023-02-10T13:10:22.273Z,24.98
2023-02-10T13:12:51.302Z,23.27
2023-02-10T13:15:22.133Z,23.02
2023-02-10T13:17:50.985Z,28.42
2023-02-10T13:20:45.630Z,23.90
2023-02-10T13:23:30.504Z,26.98
2023-02-10T13:26:14.583Z,22.23
2023-02-10T13:28:41.857Z,22.13
2023-02-10T13:31:21.821Z,22.13
2023-02-10T13:34:14.405Z,22.70
2023-02-10T13:36:41.823Z,22.98
2023-02-10T13:39:18.532Z,19.73
2023-02-10T13:41:51.434Z,23.20
2023-02-10T13:44:17.894Z,22.88
2023-02-10T13:46:50.771Z,25.48
2023-02-10T13:49:19.509Z,21.77
2023-02-10T13:51:46.402Z,24.23
2023-02-10T13:54:32.139Z,20.80
2023-02-10T13:56:59.120Z,18.88
2023-02-10T13:59:40.748Z,21.65
2023-02-10T14:02:23.275Z,20.83
2023-02-10T14:04:53.141Z,18.13
2023-02-10T14:07:25.787Z,17.60
2023-02-10T14:10:31.362Z,18.77
2023-02-10T14:13:03.497Z,18.50
2023-02-10T14:15:36.733Z,23.67
2023-02-10T14:18:23.459Z,20.27
2023-02-10T14:20:59.471Z,18.80
2023-02-10T14:23:26.468Z,20.65
2023-02-10T14:26:02.321Z,22.90
2023-02-10T14:28:36.794Z,19.48
2023-02-10T14:31:14.655Z,18.37
2023-02-10T14:33:41.184Z,27.50
2023-02-10T14:36:17.586Z,22.95
2023-02-10T14:38:47.315Z,25.80
2023-02-10T14:41:20.772Z,24.58
2023-02-10T14:43:52.786Z,22.60
2023-02-10T14:46:31.102Z,22.20
2023-02-10T14:49:01.078Z,23.95
2023-02-10T14:51:29.725Z,24.02
2023-02-10T14:53:56.450Z,23.45
2023-02-10T14:56:28.039Z,23.80
2023-02-10T14:58:55.911Z,23.90
2023-02-10T15:01:26.696Z,19.20
2023-02-10T15:03:54.372Z,29.35
2023-02-10T15:06:23.708Z,22.10
2023-02-10T15:08:55.257Z,24.93
2023-02-10T15:11:48.333Z,27.10
2023-02-10T15:14:23.339Z,23.98
2023-02-10T15:16:51.026Z,23.15
2023-02-10T15:19:19.125Z,27.20
2023-02-10T15:21:47.229Z,28.87
2023-02-10T15:24:28.361Z,27.15
2023-02-10T15:26:55.109Z,26.23
2023-02-10T15:29:22.368Z,27.95
2023-02-10T15:31:54.944Z,27.15
2023-02-10T15:34:29.042Z,28.53
2023-02-10T15:36:56.973Z,35.03
2023-02-10T15:39:35.250Z,33.95
2023-02-10T15:42:23.782Z,31.30
2023-02-10T15:45:12.883Z,31.55
2023-02-10T15:47:48.661Z,36.80
2023-02-10T15:50:15.977Z,37.83
2023-02-10T15:52:46.305Z,36.67
2023-02-10T15:55:22.391Z,38.70
2023-02-10T15:57:48.977Z,41.95
2023-02-10T16:00:17.855Z,45.00
2023-02-10T16:02:44.610Z,44.78
2023-02-10T16:05:11.182Z,49.65
2023-02-10T16:07:37.673Z,53.00
2023-02-10T16:10:04.815Z,50.22
2023-02-10T16:12:31.272Z,48.20
2023-02-10T16:14:59.001Z,46.97
2023-02-10T16:17:29.269Z,48.78
2023-02-10T16:19:55.775Z,51.55
2023-02-10T16:22:22.548Z,51.67
2023-02-10T16:24:49.334Z,59.10
2023-02-10T16:27:16.345Z,58.17
2023-02-10T16:29:43.062Z,55.38
2023-02-10T16:32:12.119Z,55.05
2023-02-10T16:34:38.943Z,61.53
2023-02-10T16:37:05.827Z,63.63
2023-02-10T16:39:32.410Z,60.00
2023-02-10T16:41:58.941Z,69.00
2023-02-10T16:44:25.533Z,62.22
2023-02-10T16:46:52.155Z,59.65
2023-02-10T16:49:20.038Z,51.80
2023-02-10T16:51:47.462Z,60.70
2023-02-10T16:54:14.684Z,59.35
2023-02-10T16:56:43.844Z,61.28
2023-02-10T16:59:15.800Z,51.63
2023-02-10T17:01:42.860Z,52.47
2023-02-10T17:04:09.585Z,51.13
2023-02-10T17:06:45.452Z,52.35
2023-02-10T17:09:16.580Z,50.30
2023-02-10T17:11:43.176Z,51.25
2023-02-10T17:14:09.794Z,51.67
2023-02-10T17:16:38.908Z,52.00
2023-02-10T17:19:06.676Z,47.90
2023-02-10T17:21:33.696Z,52.92
2023-02-10T17:24:01.027Z,51.70
2023-02-10T17:26:27.479Z,52.13
2023-02-10T17:28:54.030Z,53.42
2023-02-10T17:31:23.120Z,54.42
2023-02-10T17:33:50.785Z,53.33
2023-02-10T17:36:18.150Z,47.88
2023-02-10T17:38:49.358Z,54.50
2023-02-10T17:41:20.632Z,51.65
2023-02-10T17:43:47.305Z,59.38
2023-02-10T17:46:15.270Z,57.40
2023-02-10T17:48:41.861Z,56.60
2023-02-10T17:51:12.752Z,55.03
2023-02-10T17:53:39.372Z,55.95
2023-02-10T17:56:06.557Z,54.05
2023-02-10T17:58:33.315Z,58.17
2023-02-10T18:01:00.104Z,60.60
2023-02-10T18:03:26.912Z,62.00
2023-02-10T18:05:54.838Z,61.33
2023-02-10T18:08:22.515Z,61.20
2023-02-10T18:10:50.179Z,57.95
2023-02-10T18:13:17.502Z,65.20
2023-02-10T18:15:45.395Z,67.00
2023-02-10T18:18:13.185Z,61.30
2023-02-10T18:20:43.600Z,69.00
2023-02-10T18:23:10.203Z,64.47
2023-02-10T18:25:36.727Z,63.70
2023-02-10T18:28:03.300Z,62.80
2023-02-10T18:30:29.911Z,66.57
2023-02-10T18:32:56.426Z,64.15
2023-02-10T18:35:22.970Z,63.22
2023-02-10T18:37:50.645Z,57.50
2023-02-10T18:40:19.545Z,63.77
2023-02-10T18:42:46.190Z,60.47
2023-02-10T18:45:12.785Z,60.53
2023-02-10T18:47:39.320Z,65.68
2023-02-10T18:50:06.099Z,61.28
2023-02-10T18:52:32.541Z,60.77
2023-02-10T18:54:59.170Z,60.65
2023-02-10T18:57:25.706Z,53.53
2023-02-10T18:59:52.329Z,63.05
2023-02-10T19:02:18.940Z,54.30
2023-02-10T19:04:45.394Z,60.57
2023-02-10T19:07:12.705Z,56.67
2023-02-10T19:09:39.849Z,53.60
2023-02-10T19:12:07.238Z,54.95
2023-02-10T19:14:33.809Z,56.42
2023-02-10T19:17:01.013Z,59.87
2023-02-10T19:19:27.522Z,57.92
2023-02-10T19:21:55.797Z,53.38
2023-02-10T19:24:22.510Z,50.80
2023-02-10T19:26:49.199Z,55.63
2023-02-10T19:29:15.642Z,57.37
2023-02-10T19:31:42.588Z,53.63
2023-02-10T19:34:12.659Z,50.17
2023-02-10T19:36:39.536Z,48.25
2023-02-10T19:39:06.045Z,45.38
2023-02-10T19:41:32.574Z,48.50
2023-02-10T19:44:00.142Z,48.65
2023-02-10T19:46:26.738Z,52.50
2023-02-10T19:48:53.500Z,49.53
2023-02-10T19:51:25.158Z,53.63
2023-02-10T19:53:53.123Z,53.07
2023-02-10T19:56:20.129Z,56.92
2023-02-10T19:58:46.683Z,57.20
2023-02-10T20:01:15.990Z,56.95
2023-02-10T20:03:43.738Z,61.20
2023-02-10T20:06:10.773Z,55.47
2023-02-10T20:08:37.269Z,58.78
2023-02-10T20:11:03.847Z,56.85
2023-02-10T20:13:30.453Z,57.30
2023-02-10T20:15:58.439Z,55.50
2023-02-10T20:18:25.463Z,60.70
2023-02-10T20:21:01.825Z,56.33
2023-02-10T20:23:29.552Z,60.85
2023-02-10T20:25:56.604Z,57.00
2023-02-10T20:28:23.771Z,61.45
2023-02-10T20:30:51.901Z,57.13
2023-02-10T20:33:19.397Z,57.72
2023-02-10T20:35:45.911Z,55.20
2023-02-10T20:38:12.722Z,55.65
2023-02-10T20:40:40.562Z,54.38
2023-02-10T20:43:07.294Z,55.17
2023-02-10T20:45:34.441Z,59.00
2023-02-10T20:48:00.937Z,58.83
2023-02-10T20:50:27.973Z,55.75
2023-02-10T20:52:54.441Z,53.15
2023-02-10T20:55:20.949Z,54.83
2023-02-10T20:57:47.654Z,57.33
2023-02-10T21:00:14.762Z,54.53
2023-02-10T21:02:41.350Z,61.25
2023-02-10T21:05:08.670Z,56.63
2023-02-10T21:07:35.399Z,54.97
2023-02-10T21:10:02.038Z,55.30
2023-02-10T21:12:28.576Z,53.88
2023-02-10T21:14:55.029Z,55.03
2023-02-10T21:17:22.743Z,58.00
2023-02-10T21:19:49.144Z,57.93
2023-02-10T21:22:15.701Z,59.45
2023-02-10T21:24:42.238Z,62.83
2023-02-10T21:27:08.753Z,60.92
2023-02-10T21:29:35.255Z,59.35
2023-02-10T21:32:01.749Z,57.10
2023-02-10T21:34:28.262Z,57.03
2023-02-10T21:36:54.745Z,60.60
2023-02-10T21:39:21.252Z,53.58
2023-02-10T21:41:52.204Z,57.63
2023-02-10T21:44:24.412Z,61.30
2023-02-10T21:46:54.024Z,55.50
2023-02-10T21:49:22.301Z,53.40
2023-02-10T21:51:49.138Z,48.13
2023-02-10T21:54:15.820Z,52.22
2023-02-10T21:56:42.672Z,50.60
2023-02-10T21:59:09.303Z,53.85
2023-02-10T22:01:36.089Z,52.50
2023-02-10T22:04:05.704Z,48.30
2023-02-10T22:06:38.106Z,49.08
2023-02-10T22:09:07.331Z,50.73
2023-02-10T22:11:34.468Z,53.47
2023-02-10T22:14:00.959Z,53.33
2023-02-10T22:16:27.522Z,51.67
2023-02-10T22:18:54.310Z,53.03
2023-02-10T22:21:22.883Z,44.57
2023-02-10T22:23:49.697Z,47.65
2023-02-10T22:26:19.265Z,48.22
2023-02-10T22:28:46.221Z,42.50
2023-02-10T22:31:17.461Z,44.40
2023-02-10T22:33:45.061Z,47.30
2023-02-10T22:36:12.777Z,46.80
2023-02-10T22:38:40.614Z,47.45
2023-02-10T22:41:09.282Z,39.85
2023-02-10T22:43:37.097Z,37.58
2023-02-10T22:46:04.437Z,41.30
2023-02-10T22:48:31.635Z,39.70
2023-02-10T22:51:17.560Z,41.00
2023-02-10T22:53:44.198Z,42.45
2023-02-10T22:56:16.936Z,40.47
2023-02-10T22:58:44.510Z,37.43
2023-02-10T23:01:12.231Z,41.08
2023-02-10T23:03:38.748Z,41.80
2023-02-10T23:06:05.270Z,47.35
2023-02-10T23:08:32.190Z,39.50
2023-02-10T23:10:58.721Z,38.90
2023-02-10T23:13:25.490Z,32.58
2023-02-10T23:15:56.332Z,38.33
2023-02-10T23:18:23.348Z,33.83
2023-02-10T23:20:50.756Z,39.03
2023-02-10T23:23:17.274Z,36.40
2023-02-10T23:25:49.196Z,42.50
2023-02-10T23:28:16.586Z,36.25
2023-02-10T23:30:43.757Z,35.03
2023-02-10T23:33:10.907Z,34.47
2023-02-10T23:35:45.409Z,33.93
2023-02-10T23:38:12.874Z,31.33
2023-02-10T23:40:39.972Z,32.85
2023-02-10T23:43:07.316Z,33.25
2023-02-10T23:45:34.827Z,32.25
2023-02-10T23:48:01.791Z,27.93
2023-02-10T23:50:28.616Z,29.30
2023-02-10T23:52:55.199Z,29.75
2023-02-10T23:55:22.029Z,28.48
2023-02-10T23:57:48.540Z,28.45
